sensor_id;sensor_type;location;lat;lon;timestamp;P1;durP1;ratioP1;P2;durP2;ratioP2
76896;SDS011;65856;52.178;21.176;2023-02-21T00:01:22;1.20;;;1.00;;
76896;SDS011;65856;52.178;21.176;2023-02-21T00:04:10;2.00;;;1.50;;
76896;SDS011;65856;52.178;21.176;2023-02-21T00:06:59;4.70;;;2.00;;
76896;SDS011;65856;52.178;21.176;2023-02-21T00:09:47;3.50;;;1.90;;
76896;SDS011;65856;52.178;21.176;2023-02-21T00:12:35;3.30;;;1.70;;
76896;SDS011;65856;52.178;21.176;2023-02-21T00:15:23;2.30;;;1.50;;
76896;SDS011;65856;52.178;21.176;2023-02-21T00:18:11;3.20;;;1.40;;
76896;SDS011;65856;52.178;21.176;2023-02-21T00:20:59;1.90;;;1.10;;
76896;SDS011;65856;52.178;21.176;2023-02-21T00:23:48;3.00;;;1.30;;
76896;SDS011;65856;52.178;21.176;2023-02-21T00:26:36;3.70;;;1.20;;
76896;SDS011;65856;52.178;21.176;2023-02-21T00:29:25;2.80;;;1.20;;
76896;SDS011;65856;52.178;21.176;2023-02-21T00:32:13;2.60;;;1.20;;
76896;SDS011;65856;52.178;21.176;2023-02-21T00:35:01;2.90;;;1.30;;
76896;SDS011;65856;52.178;21.176;2023-02-21T00:37:51;1.70;;;1.10;;
76896;SDS011;65856;52.178;21.176;2023-02-21T00:40:39;3.00;;;1.10;;
76896;SDS011;65856;52.178;21.176;2023-02-21T00:43:31;1.90;;;1.10;;
76896;SDS011;65856;52.178;21.176;2023-02-21T00:46:21;2.80;;;1.00;;
76896;SDS011;65856;52.178;21.176;2023-02-21T00:49:10;1.80;;;1.20;;
76896;SDS011;65856;52.178;21.176;2023-02-21T00:51:58;2.10;;;1.10;;
76896;SDS011;65856;52.178;21.176;2023-02-21T00:54:46;2.70;;;1.20;;
76896;SDS011;65856;52.178;21.176;2023-02-21T00:57:34;1.90;;;1.00;;
76896;SDS011;65856;52.178;21.176;2023-02-21T01:00:24;1.30;;;0.90;;
76896;SDS011;65856;52.178;21.176;2023-02-21T01:03:12;2.80;;;1.10;;
76896;SDS011;65856;52.178;21.176;2023-02-21T01:06:00;1.80;;;1.10;;
76896;SDS011;65856;52.178;21.176;2023-02-21T01:08:48;2.70;;;1.10;;
76896;SDS011;65856;52.178;21.176;2023-02-21T01:11:37;1.90;;;1.00;;
76896;SDS011;65856;52.178;21.176;2023-02-21T01:14:25;1.90;;;1.10;;
76896;SDS011;65856;52.178;21.176;2023-02-21T01:17:14;1.50;;;1.00;;
76896;SDS011;65856;52.178;21.176;2023-02-21T01:20:02;1.30;;;0.80;;
76896;SDS011;65856;52.178;21.176;2023-02-21T01:22:51;1.60;;;0.90;;
76896;SDS011;65856;52.178;21.176;2023-02-21T01:25:39;1.20;;;0.80;;
76896;SDS011;65856;52.178;21.176;2023-02-21T01:28:27;3.20;;;1.00;;
76896;SDS011;65856;52.178;21.176;2023-02-21T01:31:18;2.40;;;0.80;;
76896;SDS011;65856;52.178;21.176;2023-02-21T01:34:07;1.60;;;0.90;;
76896;SDS011;65856;52.178;21.176;2023-02-21T01:36:55;1.60;;;0.70;;
76896;SDS011;65856;52.178;21.176;2023-02-21T01:39:43;2.80;;;0.70;;
76896;SDS011;65856;52.178;21.176;2023-02-21T01:42:32;1.50;;;0.70;;
76896;SDS011;65856;52.178;21.176;2023-02-21T01:45:44;2.40;;;1.00;;
76896;SDS011;65856;52.178;21.176;2023-02-21T01:48:35;1.30;;;0.70;;
76896;SDS011;65856;52.178;21.176;2023-02-21T01:51:27;1.00;;;0.60;;
76896;SDS011;65856;52.178;21.176;2023-02-21T01:54:21;3.80;;;0.80;;
76896;SDS011;65856;52.178;21.176;2023-02-21T01:57:11;2.50;;;0.90;;
76896;SDS011;65856;52.178;21.176;2023-02-21T02:00:02;3.80;;;0.90;;
76896;SDS011;65856;52.178;21.176;2023-02-21T02:02:57;2.70;;;0.90;;
76896;SDS011;65856;52.178;21.176;2023-02-21T02:05:52;2.10;;;0.90;;
76896;SDS011;65856;52.178;21.176;2023-02-21T02:08:43;1.80;;;0.90;;
76896;SDS011;65856;52.178;21.176;2023-02-21T02:11:49;2.50;;;0.70;;
76896;SDS011;65856;52.178;21.176;2023-02-21T02:15:10;2.80;;;0.90;;
76896;SDS011;65856;52.178;21.176;2023-02-21T02:18:00;5.70;;;1.20;;
76896;SDS011;65856;52.178;21.176;2023-02-21T02:21:01;2.30;;;0.80;;
76896;SDS011;65856;52.178;21.176;2023-02-21T02:24:07;1.60;;;0.90;;
76896;SDS011;65856;52.178;21.176;2023-02-21T02:33:29;2.20;;;0.90;;
76896;SDS011;65856;52.178;21.176;2023-02-21T02:36:22;3.00;;;1.00;;
76896;SDS011;65856;52.178;21.176;2023-02-21T02:39:01;1.10;;;0.70;;
76896;SDS011;65856;52.178;21.176;2023-02-21T02:41:48;1.60;;;0.80;;
76896;SDS011;65856;52.178;21.176;2023-02-21T02:44:29;2.40;;;1.10;;
76896;SDS011;65856;52.178;21.176;2023-02-21T02:47:07;2.50;;;0.90;;
76896;SDS011;65856;52.178;21.176;2023-02-21T02:49:45;2.20;;;0.80;;
76896;SDS011;65856;52.178;21.176;2023-02-21T02:52:18;1.60;;;0.80;;
76896;SDS011;65856;52.178;21.176;2023-02-21T02:54:59;2.70;;;0.80;;
76896;SDS011;65856;52.178;21.176;2023-02-21T02:57:33;3.20;;;0.80;;
76896;SDS011;65856;52.178;21.176;2023-02-21T03:00:10;2.60;;;0.80;;
76896;SDS011;65856;52.178;21.176;2023-02-21T03:02:51;3.30;;;1.10;;
76896;SDS011;65856;52.178;21.176;2023-02-21T03:05:47;4.70;;;1.00;;
76896;SDS011;65856;52.178;21.176;2023-02-21T03:08:32;2.60;;;0.80;;
76896;SDS011;65856;52.178;21.176;2023-02-21T03:11:14;2.50;;;0.90;;
76896;SDS011;65856;52.178;21.176;2023-02-21T03:13:52;2.70;;;0.90;;
76896;SDS011;65856;52.178;21.176;2023-02-21T03:16:30;2.20;;;0.80;;
76896;SDS011;65856;52.178;21.176;2023-02-21T03:19:06;4.40;;;1.00;;
76896;SDS011;65856;52.178;21.176;2023-02-21T03:21:43;3.30;;;1.10;;
76896;SDS011;65856;52.178;21.176;2023-02-21T03:24:18;2.90;;;0.80;;
76896;SDS011;65856;52.178;21.176;2023-02-21T03:26:55;3.10;;;0.70;;
76896;SDS011;65856;52.178;21.176;2023-02-21T03:29:28;3.30;;;1.10;;
76896;SDS011;65856;52.178;21.176;2023-02-21T03:32:02;3.80;;;1.00;;
76896;SDS011;65856;52.178;21.176;2023-02-21T03:34:39;4.60;;;0.80;;
76896;SDS011;65856;52.178;21.176;2023-02-21T03:37:19;2.70;;;0.80;;
76896;SDS011;65856;52.178;21.176;2023-02-21T03:39:56;4.00;;;1.30;;
76896;SDS011;65856;52.178;21.176;2023-02-21T03:42:28;2.70;;;0.90;;
76896;SDS011;65856;52.178;21.176;2023-02-21T03:44:58;4.50;;;1.00;;
76896;SDS011;65856;52.178;21.176;2023-02-21T03:47:29;4.20;;;1.10;;
76896;SDS011;65856;52.178;21.176;2023-02-21T03:50:00;1.80;;;0.70;;
76896;SDS011;65856;52.178;21.176;2023-02-21T03:52:32;6.60;;;1.40;;
76896;SDS011;65856;52.178;21.176;2023-02-21T03:55:02;1.50;;;0.80;;
76896;SDS011;65856;52.178;21.176;2023-02-21T03:57:34;6.80;;;1.40;;
76896;SDS011;65856;52.178;21.176;2023-02-21T04:00:06;5.40;;;1.40;;
76896;SDS011;65856;52.178;21.176;2023-02-21T04:02:38;5.00;;;1.30;;
76896;SDS011;65856;52.178;21.176;2023-02-21T04:05:09;2.60;;;1.00;;
76896;SDS011;65856;52.178;21.176;2023-02-21T04:07:40;8.30;;;1.50;;
76896;SDS011;65856;52.178;21.176;2023-02-21T04:10:10;5.00;;;0.90;;
76896;SDS011;65856;52.178;21.176;2023-02-21T04:12:41;3.80;;;0.90;;
76896;SDS011;65856;52.178;21.176;2023-02-21T04:15:12;2.40;;;1.00;;
76896;SDS011;65856;52.178;21.176;2023-02-21T04:17:42;2.50;;;0.90;;
76896;SDS011;65856;52.178;21.176;2023-02-21T04:20:14;5.50;;;1.10;;
76896;SDS011;65856;52.178;21.176;2023-02-21T04:22:45;5.50;;;1.30;;
76896;SDS011;65856;52.178;21.176;2023-02-21T04:25:16;7.30;;;1.70;;
76896;SDS011;65856;52.178;21.176;2023-02-21T04:27:47;4.30;;;1.20;;
76896;SDS011;65856;52.178;21.176;2023-02-21T04:30:18;6.10;;;1.10;;
76896;SDS011;65856;52.178;21.176;2023-02-21T04:32:48;3.70;;;1.10;;
76896;SDS011;65856;52.178;21.176;2023-02-21T04:35:19;5.10;;;1.40;;
76896;SDS011;65856;52.178;21.176;2023-02-21T04:37:50;4.80;;;1.30;;
76896;SDS011;65856;52.178;21.176;2023-02-21T04:40:21;4.70;;;1.30;;
76896;SDS011;65856;52.178;21.176;2023-02-21T04:42:51;8.10;;;1.50;;
76896;SDS011;65856;52.178;21.176;2023-02-21T04:45:22;6.50;;;1.50;;
76896;SDS011;65856;52.178;21.176;2023-02-21T04:47:53;5.90;;;1.40;;
76896;SDS011;65856;52.178;21.176;2023-02-21T04:50:23;8.10;;;1.40;;
76896;SDS011;65856;52.178;21.176;2023-02-21T04:55:24;4.80;;;1.20;;
76896;SDS011;65856;52.178;21.176;2023-02-21T04:57:55;6.30;;;1.10;;
76896;SDS011;65856;52.178;21.176;2023-02-21T05:00:26;7.20;;;1.20;;
76896;SDS011;65856;52.178;21.176;2023-02-21T05:02:57;4.00;;;1.00;;
76896;SDS011;65856;52.178;21.176;2023-02-21T05:05:28;4.30;;;1.10;;
76896;SDS011;65856;52.178;21.176;2023-02-21T05:07:58;5.20;;;1.60;;
76896;SDS011;65856;52.178;21.176;2023-02-21T05:10:29;6.50;;;1.60;;
76896;SDS011;65856;52.178;21.176;2023-02-21T05:13:00;7.50;;;1.00;;
76896;SDS011;65856;52.178;21.176;2023-02-21T05:15:31;4.00;;;1.20;;
76896;SDS011;65856;52.178;21.176;2023-02-21T05:18:01;9.00;;;1.20;;
76896;SDS011;65856;52.178;21.176;2023-02-21T05:20:32;5.10;;;1.10;;
76896;SDS011;65856;52.178;21.176;2023-02-21T05:23:03;6.00;;;1.40;;
76896;SDS011;65856;52.178;21.176;2023-02-21T05:25:34;4.10;;;1.10;;
76896;SDS011;65856;52.178;21.176;2023-02-21T05:28:04;8.30;;;1.20;;
76896;SDS011;65856;52.178;21.176;2023-02-21T05:30:35;4.20;;;1.10;;
76896;SDS011;65856;52.178;21.176;2023-02-21T05:33:06;8.10;;;1.50;;
76896;SDS011;65856;52.178;21.176;2023-02-21T05:35:36;4.50;;;1.10;;
76896;SDS011;65856;52.178;21.176;2023-02-21T05:38:07;4.70;;;1.00;;
76896;SDS011;65856;52.178;21.176;2023-02-21T05:40:38;5.10;;;1.00;;
76896;SDS011;65856;52.178;21.176;2023-02-21T05:43:08;3.70;;;1.00;;
76896;SDS011;65856;52.178;21.176;2023-02-21T05:45:39;3.70;;;0.90;;
76896;SDS011;65856;52.178;21.176;2023-02-21T05:48:10;4.00;;;1.00;;
76896;SDS011;65856;52.178;21.176;2023-02-21T05:50:41;6.20;;;1.30;;
76896;SDS011;65856;52.178;21.176;2023-02-21T05:53:12;6.80;;;1.10;;
76896;SDS011;65856;52.178;21.176;2023-02-21T05:55:43;5.60;;;1.10;;
76896;SDS011;65856;52.178;21.176;2023-02-21T05:58:14;5.50;;;1.20;;
76896;SDS011;65856;52.178;21.176;2023-02-21T06:00:44;4.20;;;1.20;;
76896;SDS011;65856;52.178;21.176;2023-02-21T06:03:15;7.30;;;1.00;;
76896;SDS011;65856;52.178;21.176;2023-02-21T06:05:46;7.30;;;1.90;;
76896;SDS011;65856;52.178;21.176;2023-02-21T06:08:16;6.30;;;1.00;;
76896;SDS011;65856;52.178;21.176;2023-02-21T06:10:47;4.70;;;1.00;;
76896;SDS011;65856;52.178;21.176;2023-02-21T06:13:18;6.50;;;1.00;;
76896;SDS011;65856;52.178;21.176;2023-02-21T06:15:48;6.10;;;1.10;;
76896;SDS011;65856;52.178;21.176;2023-02-21T06:18:19;9.00;;;1.10;;
76896;SDS011;65856;52.178;21.176;2023-02-21T06:20:50;5.40;;;1.00;;
76896;SDS011;65856;52.178;21.176;2023-02-21T06:23:21;4.90;;;1.10;;
76896;SDS011;65856;52.178;21.176;2023-02-21T06:25:52;4.50;;;1.00;;
76896;SDS011;65856;52.178;21.176;2023-02-21T06:28:28;4.10;;;1.20;;
76896;SDS011;65856;52.178;21.176;2023-02-21T06:30:59;6.10;;;1.20;;
76896;SDS011;65856;52.178;21.176;2023-02-21T06:33:31;5.40;;;1.00;;
76896;SDS011;65856;52.178;21.176;2023-02-21T06:36:05;8.50;;;1.30;;
76896;SDS011;65856;52.178;21.176;2023-02-21T06:42:00;8.00;;;1.20;;
76896;SDS011;65856;52.178;21.176;2023-02-21T06:44:28;8.90;;;1.40;;
76896;SDS011;65856;52.178;21.176;2023-02-21T06:46:56;8.60;;;1.30;;
76896;SDS011;65856;52.178;21.176;2023-02-21T06:49:23;8.90;;;1.40;;
76896;SDS011;65856;52.178;21.176;2023-02-21T06:51:51;4.50;;;1.10;;
76896;SDS011;65856;52.178;21.176;2023-02-21T06:54:19;6.60;;;1.40;;
76896;SDS011;65856;52.178;21.176;2023-02-21T06:56:47;11.70;;;1.80;;
76896;SDS011;65856;52.178;21.176;2023-02-21T06:59:14;7.80;;;1.20;;
76896;SDS011;65856;52.178;21.176;2023-02-21T07:01:42;6.40;;;1.50;;
76896;SDS011;65856;52.178;21.176;2023-02-21T07:04:10;6.30;;;1.40;;
76896;SDS011;65856;52.178;21.176;2023-02-21T07:06:38;5.40;;;1.30;;
76896;SDS011;65856;52.178;21.176;2023-02-21T07:09:06;6.10;;;1.20;;
76896;SDS011;65856;52.178;21.176;2023-02-21T07:11:34;7.50;;;1.20;;
76896;SDS011;65856;52.178;21.176;2023-02-21T07:14:02;8.60;;;1.50;;
76896;SDS011;65856;52.178;21.176;2023-02-21T07:16:30;9.40;;;2.20;;
76896;SDS011;65856;52.178;21.176;2023-02-21T07:18:57;7.60;;;1.50;;
76896;SDS011;65856;52.178;21.176;2023-02-21T07:21:26;10.20;;;1.80;;
76896;SDS011;65856;52.178;21.176;2023-02-21T07:23:54;6.10;;;1.30;;
76896;SDS011;65856;52.178;21.176;2023-02-21T07:26:22;5.50;;;1.70;;
76896;SDS011;65856;52.178;21.176;2023-02-21T07:28:50;9.80;;;1.50;;
76896;SDS011;65856;52.178;21.176;2023-02-21T07:31:17;4.20;;;1.30;;
76896;SDS011;65856;52.178;21.176;2023-02-21T07:33:45;5.30;;;1.40;;
76896;SDS011;65856;52.178;21.176;2023-02-21T07:36:13;7.90;;;1.30;;
76896;SDS011;65856;52.178;21.176;2023-02-21T07:38:41;8.00;;;1.40;;
76896;SDS011;65856;52.178;21.176;2023-02-21T07:41:09;6.00;;;1.20;;
76896;SDS011;65856;52.178;21.176;2023-02-21T07:43:36;6.70;;;1.50;;
76896;SDS011;65856;52.178;21.176;2023-02-21T07:46:09;7.20;;;1.30;;
76896;SDS011;65856;52.178;21.176;2023-02-21T07:48:37;7.10;;;1.70;;
76896;SDS011;65856;52.178;21.176;2023-02-21T07:51:06;7.30;;;1.50;;
76896;SDS011;65856;52.178;21.176;2023-02-21T07:53:34;8.90;;;2.10;;
76896;SDS011;65856;52.178;21.176;2023-02-21T07:56:02;9.70;;;2.20;;
76896;SDS011;65856;52.178;21.176;2023-02-21T07:58:31;11.50;;;1.60;;
76896;SDS011;65856;52.178;21.176;2023-02-21T08:01:02;7.20;;;1.50;;
76896;SDS011;65856;52.178;21.176;2023-02-21T08:03:31;8.80;;;1.70;;
76896;SDS011;65856;52.178;21.176;2023-02-21T08:05:58;7.10;;;1.60;;
76896;SDS011;65856;52.178;21.176;2023-02-21T08:08:26;6.40;;;1.50;;
76896;SDS011;65856;52.178;21.176;2023-02-21T08:10:54;7.90;;;1.80;;
76896;SDS011;65856;52.178;21.176;2023-02-21T08:13:22;7.00;;;2.00;;
76896;SDS011;65856;52.178;21.176;2023-02-21T08:15:49;10.90;;;2.10;;
76896;SDS011;65856;52.178;21.176;2023-02-21T08:18:18;7.00;;;1.90;;
76896;SDS011;65856;52.178;21.176;2023-02-21T08:20:49;5.80;;;1.40;;
76896;SDS011;65856;52.178;21.176;2023-02-21T08:23:18;9.00;;;1.70;;
76896;SDS011;65856;52.178;21.176;2023-02-21T08:25:46;8.20;;;1.80;;
76896;SDS011;65856;52.178;21.176;2023-02-21T08:28:15;12.00;;;2.00;;
76896;SDS011;65856;52.178;21.176;2023-02-21T08:30:52;8.60;;;1.50;;
76896;SDS011;65856;52.178;21.176;2023-02-21T08:33:21;6.30;;;1.70;;
76896;SDS011;65856;52.178;21.176;2023-02-21T08:35:49;10.10;;;1.70;;
76896;SDS011;65856;52.178;21.176;2023-02-21T08:38:18;7.40;;;1.50;;
76896;SDS011;65856;52.178;21.176;2023-02-21T08:40:46;9.40;;;2.90;;
76896;SDS011;65856;52.178;21.176;2023-02-21T08:43:14;10.40;;;2.00;;
76896;SDS011;65856;52.178;21.176;2023-02-21T08:45:41;11.50;;;2.00;;
76896;SDS011;65856;52.178;21.176;2023-02-21T08:48:09;9.70;;;1.90;;
76896;SDS011;65856;52.178;21.176;2023-02-21T08:50:37;7.30;;;1.90;;
76896;SDS011;65856;52.178;21.176;2023-02-21T08:53:05;9.60;;;2.00;;
76896;SDS011;65856;52.178;21.176;2023-02-21T08:55:33;7.30;;;1.70;;
76896;SDS011;65856;52.178;21.176;2023-02-21T08:58:00;9.00;;;1.60;;
76896;SDS011;65856;52.178;21.176;2023-02-21T09:00:28;10.30;;;2.40;;
76896;SDS011;65856;52.178;21.176;2023-02-21T09:02:56;6.80;;;2.00;;
76896;SDS011;65856;52.178;21.176;2023-02-21T09:05:26;8.60;;;2.00;;
76896;SDS011;65856;52.178;21.176;2023-02-21T09:07:57;9.60;;;2.00;;
76896;SDS011;65856;52.178;21.176;2023-02-21T09:10:27;7.50;;;1.40;;
76896;SDS011;65856;52.178;21.176;2023-02-21T09:12:59;5.80;;;1.60;;
76896;SDS011;65856;52.178;21.176;2023-02-21T09:15:27;9.40;;;1.70;;
76896;SDS011;65856;52.178;21.176;2023-02-21T09:17:55;10.00;;;2.00;;
76896;SDS011;65856;52.178;21.176;2023-02-21T09:20:24;4.70;;;1.60;;
76896;SDS011;65856;52.178;21.176;2023-02-21T09:22:52;6.30;;;1.60;;
76896;SDS011;65856;52.178;21.176;2023-02-21T09:25:22;10.80;;;2.40;;
76896;SDS011;65856;52.178;21.176;2023-02-21T09:27:51;7.10;;;1.70;;
76896;SDS011;65856;52.178;21.176;2023-02-21T09:30:20;10.00;;;2.00;;
76896;SDS011;65856;52.178;21.176;2023-02-21T09:32:51;7.50;;;1.70;;
76896;SDS011;65856;52.178;21.176;2023-02-21T09:35:19;7.90;;;1.50;;
76896;SDS011;65856;52.178;21.176;2023-02-21T09:37:47;6.80;;;1.80;;
76896;SDS011;65856;52.178;21.176;2023-02-21T09:40:23;6.90;;;1.80;;
76896;SDS011;65856;52.178;21.176;2023-02-21T09:42:59;6.70;;;2.00;;
76896;SDS011;65856;52.178;21.176;2023-02-21T09:45:31;8.00;;;1.80;;
76896;SDS011;65856;52.178;21.176;2023-02-21T09:48:03;9.40;;;2.00;;
76896;SDS011;65856;52.178;21.176;2023-02-21T09:50:41;12.00;;;2.40;;
76896;SDS011;65856;52.178;21.176;2023-02-21T09:53:16;8.10;;;2.10;;
76896;SDS011;65856;52.178;21.176;2023-02-21T09:55:48;9.20;;;1.60;;
76896;SDS011;65856;52.178;21.176;2023-02-21T09:58:20;7.50;;;1.60;;
76896;SDS011;65856;52.178;21.176;2023-02-21T10:00:48;8.10;;;2.00;;
76896;SDS011;65856;52.178;21.176;2023-02-21T10:03:28;3.80;;;1.70;;
76896;SDS011;65856;52.178;21.176;2023-02-21T10:06:18;8.50;;;1.60;;
76896;SDS011;65856;52.178;21.176;2023-02-21T10:08:59;6.70;;;1.90;;
76896;SDS011;65856;52.178;21.176;2023-02-21T10:11:39;5.60;;;1.50;;
76896;SDS011;65856;52.178;21.176;2023-02-21T10:14:25;9.30;;;1.80;;
76896;SDS011;65856;52.178;21.176;2023-02-21T10:17:02;3.80;;;1.50;;
76896;SDS011;65856;52.178;21.176;2023-02-21T10:19:42;4.20;;;1.70;;
76896;SDS011;65856;52.178;21.176;2023-02-21T10:22:18;5.00;;;1.50;;
76896;SDS011;65856;52.178;21.176;2023-02-21T10:24:47;8.50;;;2.10;;
76896;SDS011;65856;52.178;21.176;2023-02-21T10:27:18;5.90;;;1.90;;
76896;SDS011;65856;52.178;21.176;2023-02-21T10:29:50;9.90;;;1.90;;
76896;SDS011;65856;52.178;21.176;2023-02-21T10:32:22;11.20;;;2.50;;
76896;SDS011;65856;52.178;21.176;2023-02-21T10:34:51;8.00;;;2.30;;
76896;SDS011;65856;52.178;21.176;2023-02-21T10:37:33;8.70;;;2.00;;
76896;SDS011;65856;52.178;21.176;2023-02-21T10:40:21;7.50;;;2.10;;
76896;SDS011;65856;52.178;21.176;2023-02-21T10:42:58;8.20;;;2.00;;
76896;SDS011;65856;52.178;21.176;2023-02-21T10:45:34;8.20;;;1.90;;
76896;SDS011;65856;52.178;21.176;2023-02-21T10:48:06;7.10;;;1.80;;
76896;SDS011;65856;52.178;21.176;2023-02-21T10:50:49;8.80;;;2.70;;
76896;SDS011;65856;52.178;21.176;2023-02-21T10:53:25;7.40;;;2.00;;
76896;SDS011;65856;52.178;21.176;2023-02-21T10:56:08;5.10;;;1.90;;
76896;SDS011;65856;52.178;21.176;2023-02-21T11:01:34;6.90;;;1.70;;
76896;SDS011;65856;52.178;21.176;2023-02-21T11:04:23;5.50;;;1.80;;
76896;SDS011;65856;52.178;21.176;2023-02-21T11:06:56;6.10;;;2.10;;
76896;SDS011;65856;52.178;21.176;2023-02-21T11:09:33;4.60;;;1.80;;
76896;SDS011;65856;52.178;21.176;2023-02-21T11:12:15;9.40;;;2.70;;
76896;SDS011;65856;52.178;21.176;2023-02-21T11:15:03;9.80;;;2.10;;
76896;SDS011;65856;52.178;21.176;2023-02-21T11:17:42;7.00;;;2.30;;
76896;SDS011;65856;52.178;21.176;2023-02-21T11:20:17;11.10;;;2.10;;
76896;SDS011;65856;52.178;21.176;2023-02-21T11:22:47;9.20;;;1.90;;
76896;SDS011;65856;52.178;21.176;2023-02-21T11:25:23;7.20;;;1.80;;
76896;SDS011;65856;52.178;21.176;2023-02-21T11:28:02;7.60;;;2.10;;
76896;SDS011;65856;52.178;21.176;2023-02-21T11:30:33;7.10;;;2.10;;
76896;SDS011;65856;52.178;21.176;2023-02-21T11:33:05;7.80;;;2.30;;
76896;SDS011;65856;52.178;21.176;2023-02-21T11:35:38;9.00;;;2.60;;
76896;SDS011;65856;52.178;21.176;2023-02-21T11:38:33;13.50;;;3.40;;
76896;SDS011;65856;52.178;21.176;2023-02-21T11:41:13;3.50;;;1.60;;
76896;SDS011;65856;52.178;21.176;2023-02-21T11:43:46;4.30;;;1.70;;
76896;SDS011;65856;52.178;21.176;2023-02-21T11:46:26;4.50;;;1.80;;
76896;SDS011;65856;52.178;21.176;2023-02-21T11:49:05;5.50;;;1.80;;
76896;SDS011;65856;52.178;21.176;2023-02-21T11:51:44;4.70;;;1.30;;
76896;SDS011;65856;52.178;21.176;2023-02-21T11:54:15;6.70;;;1.70;;
76896;SDS011;65856;52.178;21.176;2023-02-21T11:56:55;9.20;;;1.80;;
76896;SDS011;65856;52.178;21.176;2023-02-21T11:59:37;8.70;;;1.90;;
76896;SDS011;65856;52.178;21.176;2023-02-21T12:05:40;6.50;;;2.30;;
76896;SDS011;65856;52.178;21.176;2023-02-21T12:08:36;6.40;;;2.00;;
76896;SDS011;65856;52.178;21.176;2023-02-21T12:11:17;9.30;;;2.20;;
76896;SDS011;65856;52.178;21.176;2023-02-21T12:14:11;6.00;;;2.10;;
76896;SDS011;65856;52.178;21.176;2023-02-21T12:16:56;6.40;;;2.10;;
76896;SDS011;65856;52.178;21.176;2023-02-21T12:19:48;4.90;;;1.50;;
76896;SDS011;65856;52.178;21.176;2023-02-21T12:22:37;5.90;;;2.00;;
76896;SDS011;65856;52.178;21.176;2023-02-21T12:25:30;4.80;;;1.80;;
76896;SDS011;65856;52.178;21.176;2023-02-21T12:28:12;8.00;;;1.90;;
76896;SDS011;65856;52.178;21.176;2023-02-21T12:30:58;9.80;;;3.70;;
76896;SDS011;65856;52.178;21.176;2023-02-21T12:33:43;4.90;;;1.80;;
76896;SDS011;65856;52.178;21.176;2023-02-21T12:36:27;5.60;;;1.90;;
76896;SDS011;65856;52.178;21.176;2023-02-21T12:39:08;7.10;;;1.80;;
76896;SDS011;65856;52.178;21.176;2023-02-21T12:42:18;7.00;;;2.10;;
76896;SDS011;65856;52.178;21.176;2023-02-21T12:45:05;8.90;;;2.10;;
76896;SDS011;65856;52.178;21.176;2023-02-21T12:47:49;6.70;;;2.00;;
76896;SDS011;65856;52.178;21.176;2023-02-21T12:50:24;7.40;;;1.90;;
76896;SDS011;65856;52.178;21.176;2023-02-21T12:52:59;4.60;;;1.60;;
76896;SDS011;65856;52.178;21.176;2023-02-21T12:55:33;7.30;;;2.00;;
76896;SDS011;65856;52.178;21.176;2023-02-21T12:58:10;7.40;;;2.10;;
76896;SDS011;65856;52.178;21.176;2023-02-21T13:00:48;6.90;;;1.80;;
76896;SDS011;65856;52.178;21.176;2023-02-21T13:03:32;8.00;;;2.30;;
76896;SDS011;65856;52.178;21.176;2023-02-21T13:06:10;7.60;;;1.80;;
76896;SDS011;65856;52.178;21.176;2023-02-21T13:08:54;7.70;;;2.10;;
76896;SDS011;65856;52.178;21.176;2023-02-21T13:11:31;7.60;;;2.00;;
76896;SDS011;65856;52.178;21.176;2023-02-21T13:14:07;5.50;;;1.60;;
76896;SDS011;65856;52.178;21.176;2023-02-21T13:16:37;6.80;;;1.80;;
76896;SDS011;65856;52.178;21.176;2023-02-21T13:19:08;7.10;;;1.70;;
76896;SDS011;65856;52.178;21.176;2023-02-21T13:21:57;5.10;;;1.40;;
76896;SDS011;65856;52.178;21.176;2023-02-21T13:24:54;4.80;;;1.60;;
76896;SDS011;65856;52.178;21.176;2023-02-21T13:27:44;4.90;;;1.50;;
76896;SDS011;65856;52.178;21.176;2023-02-21T13:30:22;5.60;;;1.50;;
76896;SDS011;65856;52.178;21.176;2023-02-21T13:32:55;4.50;;;1.30;;
76896;SDS011;65856;52.178;21.176;2023-02-21T13:35:31;5.40;;;1.60;;
76896;SDS011;65856;52.178;21.176;2023-02-21T13:38:03;4.90;;;1.80;;
76896;SDS011;65856;52.178;21.176;2023-02-21T13:40:35;5.70;;;1.80;;
76896;SDS011;65856;52.178;21.176;2023-02-21T13:43:11;4.70;;;1.80;;
76896;SDS011;65856;52.178;21.176;2023-02-21T13:45:45;4.90;;;1.50;;
76896;SDS011;65856;52.178;21.176;2023-02-21T13:48:30;4.40;;;1.80;;
76896;SDS011;65856;52.178;21.176;2023-02-21T13:50:59;8.10;;;2.10;;
76896;SDS011;65856;52.178;21.176;2023-02-21T13:53:30;6.00;;;2.20;;
76896;SDS011;65856;52.178;21.176;2023-02-21T13:56:15;7.60;;;1.90;;
76896;SDS011;65856;52.178;21.176;2023-02-21T13:58:44;6.50;;;2.10;;
76896;SDS011;65856;52.178;21.176;2023-02-21T14:01:20;6.50;;;2.00;;
76896;SDS011;65856;52.178;21.176;2023-02-21T14:07:46;4.10;;;1.50;;
76896;SDS011;65856;52.178;21.176;2023-02-21T14:10:25;6.90;;;1.60;;
76896;SDS011;65856;52.178;21.176;2023-02-21T14:13:00;6.10;;;1.80;;
76896;SDS011;65856;52.178;21.176;2023-02-21T14:15:37;8.20;;;2.20;;
76896;SDS011;65856;52.178;21.176;2023-02-21T14:18:15;4.10;;;1.20;;
76896;SDS011;65856;52.178;21.176;2023-02-21T14:20:49;6.40;;;1.60;;
76896;SDS011;65856;52.178;21.176;2023-02-21T14:23:24;8.30;;;2.10;;
76896;SDS011;65856;52.178;21.176;2023-02-21T14:26:02;7.50;;;1.60;;
76896;SDS011;65856;52.178;21.176;2023-02-21T14:28:59;6.10;;;1.50;;
76896;SDS011;65856;52.178;21.176;2023-02-21T14:31:47;6.30;;;1.30;;
76896;SDS011;65856;52.178;21.176;2023-02-21T14:34:21;9.70;;;1.50;;
76896;SDS011;65856;52.178;21.176;2023-02-21T14:36:59;10.70;;;1.80;;
76896;SDS011;65856;52.178;21.176;2023-02-21T14:39:36;8.90;;;2.00;;
76896;SDS011;65856;52.178;21.176;2023-02-21T14:42:22;11.90;;;2.30;;
76896;SDS011;65856;52.178;21.176;2023-02-21T14:45:14;9.60;;;1.90;;
76896;SDS011;65856;52.178;21.176;2023-02-21T14:48:03;9.10;;;2.40;;
76896;SDS011;65856;52.178;21.176;2023-02-21T14:51:05;13.20;;;2.70;;
76896;SDS011;65856;52.178;21.176;2023-02-21T14:54:17;6.60;;;2.00;;
76896;SDS011;65856;52.178;21.176;2023-02-21T14:57:03;13.30;;;2.90;;
76896;SDS011;65856;52.178;21.176;2023-02-21T15:00:12;11.10;;;2.00;;
76896;SDS011;65856;52.178;21.176;2023-02-21T15:02:49;8.60;;;2.10;;
76896;SDS011;65856;52.178;21.176;2023-02-21T15:05:26;10.30;;;2.20;;
76896;SDS011;65856;52.178;21.176;2023-02-21T15:08:01;8.20;;;2.30;;
76896;SDS011;65856;52.178;21.176;2023-02-21T15:10:40;12.70;;;2.90;;
76896;SDS011;65856;52.178;21.176;2023-02-21T15:13:21;11.00;;;2.40;;
76896;SDS011;65856;52.178;21.176;2023-02-21T15:15:56;13.20;;;2.90;;
76896;SDS011;65856;52.178;21.176;2023-02-21T15:18:27;9.90;;;2.40;;
76896;SDS011;65856;52.178;21.176;2023-02-21T15:21:07;11.90;;;3.00;;
76896;SDS011;65856;52.178;21.176;2023-02-21T15:23:45;13.40;;;2.90;;
76896;SDS011;65856;52.178;21.176;2023-02-21T15:26:19;14.20;;;2.70;;
76896;SDS011;65856;52.178;21.176;2023-02-21T15:29:04;17.10;;;3.70;;
76896;SDS011;65856;52.178;21.176;2023-02-21T15:31:35;7.30;;;2.30;;
76896;SDS011;65856;52.178;21.176;2023-02-21T15:34:05;16.30;;;2.80;;
76896;SDS011;65856;52.178;21.176;2023-02-21T15:36:44;17.10;;;2.80;;
76896;SDS011;65856;52.178;21.176;2023-02-21T15:39:19;10.70;;;2.50;;
76896;SDS011;65856;52.178;21.176;2023-02-21T15:41:50;11.00;;;2.60;;
76896;SDS011;65856;52.178;21.176;2023-02-21T15:44:27;7.50;;;2.50;;
76896;SDS011;65856;52.178;21.176;2023-02-21T15:47:00;8.10;;;2.60;;
76896;SDS011;65856;52.178;21.176;2023-02-21T15:49:32;10.10;;;2.30;;
76896;SDS011;65856;52.178;21.176;2023-02-21T15:52:04;11.90;;;2.60;;
76896;SDS011;65856;52.178;21.176;2023-02-21T15:54:33;10.10;;;2.50;;